Back to Top

Language: 

My Weather Underground Personal Weather Station Historical Data with Graphs...

Delerius Weather Station Historical Data
Daily Summary for November 20, 2017 Units:  Metric    English   Both
« Previous Day
Next Day »
Daily Weekly Monthly Yearly Custom
  High: Low: Average:
Temperature: 14.1 °C 5.9 °C 10.8 °C
Dew Point: 11.6 °C 3.4 °C 9.2 °C
Humidity: 95 % 82 % 90 %
Wind Speed: 32.2 km/h 1.6 km/h 11.9 km/h
Wind Gust: 43.5 km/h - -
Wind:- - WSW
Pressure: 1017.5 hPa 1007.7 hPa -
Precipitation: 0.51 mm    
Historical Graphs
 
 
Tabular Data for November 20, 2017
Time Temperature Dew Point Pressure Wind Wind Speed Wind Gust Humidity Rainfall Rate (Hourly) solar Conditions
00:04 5.9 °C 3.4 °C 1017.5 hPa East 3.2 km/h 8 km/h 84 % 0 mm 0 W/m2
00:09 5.9 °C 3.4 °C 1017.5 hPa East 3.2 km/h 6.4 km/h 84 % 0 mm 0 W/m2
00:19 6.1 °C 3.8 °C 1017.2 hPa ESE 6.4 km/h 11.3 km/h 85 % 0 mm 0 W/m2
00:29 6.2 °C 3.9 °C 1017.2 hPa ESE 3.2 km/h 8 km/h 85 % 0 mm 0 W/m2
00:34 6.2 °C 4.1 °C 1017.2 hPa SSE 3.2 km/h 6.4 km/h 86 % 0 mm 0 W/m2
00:39 6.2 °C 4.1 °C 1017.2 hPa SSW 6.4 km/h 11.3 km/h 86 % 0 mm 0 W/m2
00:44 6.4 °C 4.4 °C 1016.8 hPa SW 11.3 km/h 16.1 km/h 87 % 0 mm 0 W/m2
00:49 6.6 °C 4.8 °C 1016.8 hPa SSW 11.3 km/h 17.7 km/h 88 % 0 mm 0 W/m2
01:04 6.9 °C 5.1 °C 1016.5 hPa South 6.4 km/h 14.5 km/h 88 % 0 mm 0 W/m2
01:09 6.9 °C 5.1 °C 1016.5 hPa South 6.4 km/h 12.9 km/h 88 % 0 mm 0 W/m2
01:15 6.9 °C 5.1 °C 1016.5 hPa South 4.8 km/h 9.7 km/h 88 % 0 mm 0 W/m2
01:20 6.9 °C 5.2 °C 1016.5 hPa SSE 4.8 km/h 9.7 km/h 89 % 0 mm 0 W/m2
01:25 6.9 °C 5.2 °C 1016.1 hPa SSE 3.2 km/h 8 km/h 89 % 0 mm 0 W/m2
01:30 7 °C 5.4 °C 1016.1 hPa SSW 8 km/h 16.1 km/h 90 % 0.25 mm 0 W/m2
01:41 7.3 °C 5.9 °C 1015.8 hPa SSW 11.3 km/h 17.7 km/h 91 % 0.25 mm 0 W/m2
01:46 7.4 °C 6 °C 1015.8 hPa SW 16.1 km/h 22.5 km/h 91 % 0.25 mm 0 W/m2
01:51 7.6 °C 6.2 °C 1015.5 hPa SW 12.9 km/h 22.5 km/h 91 % 0.25 mm 0 W/m2
02:01 7.7 °C 6.3 °C 1015.5 hPa SW 16.1 km/h 25.7 km/h 91 % 0.25 mm 0 W/m2
02:06 7.8 °C 6.4 °C 1015.5 hPa SW 16.1 km/h 20.9 km/h 91 % 0.25 mm 0 W/m2
02:11 7.8 °C 6.4 °C 1015.5 hPa SW 16.1 km/h 24.1 km/h 91 % 0.25 mm 0 W/m2
02:16 7.8 °C 6.4 °C 1015.1 hPa SW 12.9 km/h 20.9 km/h 91 % 0.25 mm 0 W/m2
02:21 7.8 °C 6.6 °C 1015.1 hPa SW 16.1 km/h 22.5 km/h 92 % 0.25 mm 0 W/m2
02:26 7.8 °C 6.6 °C 1014.8 hPa SW 12.9 km/h 16.1 km/h 92 % 0.25 mm 0 W/m2
02:36 7.8 °C 6.6 °C 1014.4 hPa SSW 9.7 km/h 14.5 km/h 92 % 0.25 mm 0 W/m2
02:41 7.8 °C 6.6 °C 1014.4 hPa SSW 14.5 km/h 20.9 km/h 92 % 0.25 mm 0 W/m2
02:46 7.8 °C 6.6 °C 1014.1 hPa SSW 11.3 km/h 19.3 km/h 92 % 0.25 mm 0 W/m2
02:56 7.7 °C 6.5 °C 1014.1 hPa SW 12.9 km/h 20.9 km/h 92 % 0.25 mm 0 W/m2
03:06 7.6 °C 6.4 °C 1014.1 hPa SW 16.1 km/h 22.5 km/h 92 % 0.25 mm 0 W/m2
03:11 7.4 °C 6.3 °C 1014.1 hPa SW 14.5 km/h 17.7 km/h 93 % 0.25 mm 0 W/m2
03:16 7.4 °C 6.3 °C 1013.8 hPa SSW 14.5 km/h 22.5 km/h 93 % 0.25 mm 0 W/m2
03:21 7.4 °C 6.3 °C 1013.8 hPa SSW 12.9 km/h 17.7 km/h 93 % 0.25 mm 0 W/m2
03:26 7.4 °C 6.3 °C 1013.4 hPa SSW 16.1 km/h 25.7 km/h 93 % 0.25 mm 0 W/m2
03:31 7.5 °C 6.4 °C 1013.4 hPa SSW 12.9 km/h 20.9 km/h 93 % 0 mm 0 W/m2
03:41 7.4 °C 6.3 °C 1013.4 hPa SW 11.3 km/h 16.1 km/h 93 % 0 mm 0 W/m2
03:51 7.5 °C 6.4 °C 1013.1 hPa SSW 8 km/h 11.3 km/h 93 % 0 mm 0 W/m2
03:56 7.5 °C 6.4 °C 1013.1 hPa SSW 3.2 km/h 12.9 km/h 93 % 0 mm 0 W/m2
04:01 7.5 °C 6.4 °C 1012.8 hPa SSW 8 km/h 11.3 km/h 93 % 0 mm 0 W/m2
04:06 7.5 °C 6.4 °C 1013.1 hPa SSW 8 km/h 11.3 km/h 93 % 0 mm 0 W/m2
04:11 7.6 °C 6.7 °C 1012.8 hPa SSW 6.4 km/h 9.7 km/h 94 % 0 mm 0 W/m2
04:16 7.6 °C 6.7 °C 1012.8 hPa SSW 1.6 km/h 4.8 km/h 94 % 0 mm 0 W/m2
04:26 7.7 °C 6.8 °C 1012.4 hPa SSW 6.4 km/h 14.5 km/h 94 % 0 mm 0 W/m2
04:31 7.8 °C 6.9 °C 1012.4 hPa WSW 3.2 km/h 9.7 km/h 94 % 0 mm 0 W/m2
04:36 7.9 °C 7 °C 1012.4 hPa SW 6.4 km/h 16.1 km/h 94 % 0 mm 0 W/m2
04:41 8 °C 7.1 °C 1012.1 hPa South 6.4 km/h 12.9 km/h 94 % 0 mm 0 W/m2
04:51 8.1 °C 7.2 °C 1012.1 hPa South 9.7 km/h 16.1 km/h 94 % 0 mm 0 W/m2
04:56 8.2 °C 7.3 °C 1012.1 hPa SSW 9.7 km/h 14.5 km/h 94 % 0 mm 0 W/m2
05:06 8.2 °C 7.3 °C 1011.7 hPa South 6.4 km/h 11.3 km/h 94 % 0 mm 0 W/m2
05:11 8.2 °C 7.3 °C 1011.7 hPa South 6.4 km/h 11.3 km/h 94 % 0 mm 0 W/m2
05:16 8.2 °C 7.3 °C 1011.7 hPa SSW 6.4 km/h 12.9 km/h 94 % 0 mm 0 W/m2
05:26 8.2 °C 7.3 °C 1011.4 hPa South 8 km/h 14.5 km/h 94 % 0 mm 0 W/m2
05:28 8.2 °C 7.3 °C 1011.4 hPa South 8 km/h 16.1 km/h 94 % 0 mm 0 W/m2
05:33 8.2 °C 7.4 °C 1011.1 hPa SW 8 km/h 16.1 km/h 95 % 0 mm 0 W/m2
05:38 8.3 °C 7.6 °C 1011.1 hPa SSW 9.7 km/h 14.5 km/h 95 % 0 mm 0 W/m2
05:48 8.5 °C 7.7 °C 1011.1 hPa South 4.8 km/h 9.7 km/h 95 % 0 mm 0 W/m2
05:58 8.7 °C 7.9 °C 1010.7 hPa SSW 12.9 km/h 17.7 km/h 95 % 0 mm 0 W/m2
06:03 8.8 °C 8.1 °C 1010.7 hPa SW 6.4 km/h 11.3 km/h 95 % 0 mm 0 W/m2
06:08 8.9 °C 8.2 °C 1010.4 hPa SW 8 km/h 12.9 km/h 95 % 0 mm 0 W/m2
06:18 9.1 °C 8.3 °C 1010.4 hPa SSW 9.7 km/h 16.1 km/h 95 % 0 mm 0 W/m2
06:28 9.3 °C 8.4 °C 1010 hPa SW 9.7 km/h 17.7 km/h 94 % 0 mm 0 W/m2
06:38 9.6 °C 8.7 °C 1010 hPa SW 12.9 km/h 19.3 km/h 94 % 0 mm 0 W/m2
06:43 9.7 °C 8.8 °C 1010 hPa SW 11.3 km/h 17.7 km/h 94 % 0 mm 0 W/m2
06:48 9.7 °C 8.8 °C 1010 hPa SW 11.3 km/h 17.7 km/h 94 % 0 mm 0 W/m2
06:53 9.8 °C 8.9 °C 1010 hPa WSW 14.5 km/h 22.5 km/h 94 % 0 mm 0 W/m2
06:58 9.9 °C 9 °C 1010 hPa SW 11.3 km/h 20.9 km/h 94 % 0 mm 0 W/m2
07:03 10 °C 9.1 °C 1010 hPa WSW 12.9 km/h 19.3 km/h 94 % 0 mm 0 W/m2
07:08 10.1 °C 9.2 °C 1010 hPa WSW 11.3 km/h 16.1 km/h 94 % 0 mm 0 W/m2
07:13 10.1 °C 9.2 °C 1010 hPa WSW 9.7 km/h 12.9 km/h 94 % 0 mm 0 W/m2
07:18 10.1 °C 9.2 °C 1009.7 hPa WSW 12.9 km/h 17.7 km/h 94 % 0 mm 0 W/m2
07:23 10.1 °C 9.2 °C 1009.7 hPa SW 11.3 km/h 16.1 km/h 94 % 0 mm 0 W/m2
07:28 10.2 °C 9.3 °C 1009.7 hPa SW 9.7 km/h 16.1 km/h 94 % 0 mm 0 W/m2
07:33 10.2 °C 9.3 °C 1009.7 hPa SW 11.3 km/h 16.1 km/h 94 % 0 mm 0 W/m2
07:53 10.4 °C 9.5 °C 1009.7 hPa SW 6.4 km/h 12.9 km/h 94 % 0 mm 0 W/m2
07:58 10.4 °C 9.5 °C 1009.7 hPa SW 6.4 km/h 11.3 km/h 94 % 0 mm 0 W/m2
08:03 10.4 °C 9.5 °C 1009.7 hPa SW 8 km/h 11.3 km/h 94 % 0 mm 0 W/m2
08:08 10.4 °C 9.5 °C 1009.7 hPa SSW 9.7 km/h 12.9 km/h 94 % 0 mm 0 W/m2
08:13 10.4 °C 9.5 °C 1009.7 hPa SW 9.7 km/h 14.5 km/h 94 % 0 mm 5 W/m2
08:23 10.3 °C 9.4 °C 1009.7 hPa SSW 8 km/h 14.5 km/h 94 % 0 mm 5 W/m2
08:28 10.4 °C 9.6 °C 1009.7 hPa SSW 4.8 km/h 9.7 km/h 95 % 0 mm 7 W/m2
08:33 10.5 °C 9.7 °C 1009.4 hPa SW 8 km/h 14.5 km/h 95 % 0 mm 7 W/m2
08:38 10.7 °C 9.9 °C 1009.4 hPa SW 6.4 km/h 12.9 km/h 95 % 0 mm 9 W/m2
08:46 11 °C 10.2 °C 1009.4 hPa SW 11.3 km/h 19.3 km/h 95 % 0 mm 7 W/m2
08:51 11.2 °C 10.4 °C 1009.4 hPa WSW 12.9 km/h 24.1 km/h 95 % 0 mm 7 W/m2
08:56 11.3 °C 10.4 °C 1009.4 hPa WSW 12.9 km/h 17.7 km/h 94 % 0 mm 9 W/m2
09:01 11.4 °C 10.4 °C 1009.4 hPa WSW 14.5 km/h 20.9 km/h 94 % 0 mm 11 W/m2
09:06 11.4 °C 10.4 °C 1009.4 hPa WSW 11.3 km/h 16.1 km/h 94 % 0 mm 11 W/m2
09:11 11.5 °C 10.4 °C 1009.4 hPa WSW 9.7 km/h 16.1 km/h 93 % 0 mm 12 W/m2
09:21 11.6 °C 10.5 °C 1009.4 hPa WSW 14.5 km/h 22.5 km/h 93 % 0 mm 26 W/m2
09:31 11.8 °C 10.7 °C 1009.4 hPa WSW 12.9 km/h 20.9 km/h 93 % 0 mm 32 W/m2
09:36 11.8 °C 10.7 °C 1009.4 hPa WSW 11.3 km/h 22.5 km/h 93 % 0 mm 26 W/m2
09:41 11.9 °C 10.7 °C 1009.4 hPa WSW 12.9 km/h 22.5 km/h 92 % 0 mm 25 W/m2
09:46 11.9 °C 10.7 °C 1009.4 hPa West 11.3 km/h 20.9 km/h 92 % 0 mm 16 W/m2
09:56 12 °C 10.7 °C 1009.4 hPa WSW 12.9 km/h 19.3 km/h 92 % 0 mm 42 W/m2
10:01 12.1 °C 10.8 °C 1009.4 hPa WSW 12.9 km/h 17.7 km/h 92 % 0 mm 56 W/m2
10:06 12.1 °C 10.7 °C 1009.4 hPa WSW 12.9 km/h 20.9 km/h 91 % 0 mm 70 W/m2
10:11 12.2 °C 10.8 °C 1009.4 hPa West 11.3 km/h 14.5 km/h 91 % 0 mm 25 W/m2
10:16 12.2 °C 10.8 °C 1009.4 hPa West 14.5 km/h 20.9 km/h 91 % 0 mm 28 W/m2
10:21 12.2 °C 10.8 °C 1009.4 hPa West 11.3 km/h 17.7 km/h 91 % 0 mm 35 W/m2
10:31 12.3 °C 10.9 °C 1009.4 hPa WSW 11.3 km/h 19.3 km/h 91 % 0 mm 40 W/m2
10:36 12.3 °C 10.9 °C 1009.4 hPa WSW 12.9 km/h 19.3 km/h 91 % 0 mm 28 W/m2
10:41 12.3 °C 10.9 °C 1009.4 hPa West 11.3 km/h 22.5 km/h 91 % 0 mm 18 W/m2
10:46 12.3 °C 10.9 °C 1009.4 hPa West 9.7 km/h 16.1 km/h 91 % 0 mm 19 W/m2
11:01 12.4 °C 10.9 °C 1009 hPa West 17.7 km/h 32.2 km/h 91 % 0 mm 54 W/m2
11:06 12.5 °C 10.9 °C 1009 hPa West 16.1 km/h 25.7 km/h 90 % 0 mm 47 W/m2
11:11 12.6 °C 11 °C 1009 hPa West 14.5 km/h 25.7 km/h 90 % 0 mm 42 W/m2
11:17 12.6 °C 11 °C 1008.7 hPa West 16.1 km/h 22.5 km/h 90 % 0 mm 30 W/m2
11:27 12.6 °C 11.2 °C 1008.7 hPa West 19.3 km/h 35.4 km/h 91 % 0 mm 37 W/m2
11:42 12.6 °C 11.2 °C 1008.4 hPa West 19.3 km/h 30.6 km/h 91 % 0 mm 40 W/m2
11:47 12.6 °C 11.2 °C 1008.4 hPa WSW 14.5 km/h 24.1 km/h 91 % 0 mm 76 W/m2
11:52 12.6 °C 11.2 °C 1008.4 hPa West 12.9 km/h 22.5 km/h 91 % 0 mm 49 W/m2
11:53 12.6 °C 11.2 °C 1008.4 hPa WSW 12.9 km/h 22.5 km/h 91 % 0 mm 47 W/m2
11:58 12.6 °C 11.2 °C 1008.4 hPa West 11.3 km/h 17.7 km/h 91 % 0 mm 47 W/m2
12:03 12.6 °C 11.2 °C 1008 hPa West 14.5 km/h 32.2 km/h 91 % 0 mm 70 W/m2
12:08 12.6 °C 11.2 °C 1008 hPa West 19.3 km/h 25.7 km/h 91 % 0 mm 84 W/m2
12:18 12.7 °C 11.1 °C 1008 hPa West 16.1 km/h 24.1 km/h 90 % 0 mm 33 W/m2
12:23 12.7 °C 11.1 °C 1008 hPa West 16.1 km/h 24.1 km/h 90 % 0 mm 33 W/m2
12:33 12.7 °C 10.9 °C 1008 hPa West 22.5 km/h 33.8 km/h 89 % 0 mm 44 W/m2
12:53 13 °C 11.1 °C 1008 hPa West 19.3 km/h 33.8 km/h 88 % 0 mm 132 W/m2
12:58 13.2 °C 11.3 °C 1007.7 hPa West 24.1 km/h 41.8 km/h 88 % 0 mm 276 W/m2
13:08 13.6 °C 11.5 °C 1007.7 hPa West 22.5 km/h 37 km/h 87 % 0 mm 343 W/m2
13:18 13.8 °C 11.5 °C 1008 hPa West 22.5 km/h 37 km/h 86 % 0 mm 330 W/m2
13:23 14.1 °C 11.6 °C 1008 hPa West 32.2 km/h 43.5 km/h 85 % 0 mm 207 W/m2
13:28 14 °C 11.3 °C 1008 hPa West 25.7 km/h 40.2 km/h 84 % 0 mm 149 W/m2
13:33 13.9 °C 11.2 °C 1008 hPa West 20.9 km/h 33.8 km/h 84 % 0 mm 158 W/m2
13:38 14 °C 11.3 °C 1008 hPa West 19.3 km/h 37 km/h 84 % 0 mm 225 W/m2
13:43 14 °C 11.2 °C 1008 hPa West 29 km/h 43.5 km/h 83 % 0 mm 287 W/m2
13:48 14.1 °C 11.3 °C 1008 hPa West 20.9 km/h 38.6 km/h 83 % 0 mm 141 W/m2
13:53 14 °C 11 °C 1008 hPa West 24.1 km/h 37 km/h 82 % 0 mm 98 W/m2
13:58 13.8 °C 10.9 °C 1008 hPa West 17.7 km/h 29 km/h 83 % 0 mm 156 W/m2
14:03 13.8 °C 11.2 °C 1008.4 hPa WNW 22.5 km/h 32.2 km/h 84 % 0 mm 192 W/m2
14:23 13.4 °C 10.9 °C 1008.4 hPa West 19.3 km/h 35.4 km/h 85 % 0 mm 60 W/m2
14:24 13.4 °C 10.9 °C 1008.4 hPa West 17.7 km/h 35.4 km/h 85 % 0 mm 53 W/m2
14:34 13.3 °C 11 °C 1008.4 hPa West 17.7 km/h 29 km/h 86 % 0 mm 46 W/m2
14:39 13.2 °C 10.9 °C 1008.4 hPa West 16.1 km/h 30.6 km/h 86 % 0 mm 26 W/m2
14:44 13.1 °C 10.8 °C 1008.4 hPa West 17.7 km/h 30.6 km/h 86 % 0 mm 16 W/m2
14:49 13.1 °C 10.8 °C 1008 hPa West 20.9 km/h 30.6 km/h 86 % 0 mm 19 W/m2
14:53 13 °C 10.7 °C 1008 hPa West 16.1 km/h 33.8 km/h 86 % 0 mm 21 W/m2
14:58 12.9 °C 10.6 °C 1008 hPa West 20.9 km/h 33.8 km/h 86 % 0 mm 21 W/m2
15:03 12.8 °C 10.7 °C 1008 hPa West 19.3 km/h 30.6 km/h 87 % 0 mm 46 W/m2
15:08 12.8 °C 10.7 °C 1008 hPa West 16.1 km/h 29 km/h 87 % 0 mm 25 W/m2
15:13 12.8 °C 10.7 °C 1008 hPa West 12.9 km/h 24.1 km/h 87 % 0 mm 25 W/m2
15:18 12.7 °C 10.6 °C 1008.4 hPa WNW 19.3 km/h 32.2 km/h 87 % 0 mm 32 W/m2
15:23 12.7 °C 10.6 °C 1008.4 hPa WNW 16.1 km/h 33.8 km/h 87 % 0 mm 28 W/m2
15:33 12.6 °C 10.5 °C 1008.4 hPa WNW 16.1 km/h 29 km/h 87 % 0 mm 12 W/m2
15:38 12.6 °C 10.5 °C 1008.4 hPa WNW 19.3 km/h 33.8 km/h 87 % 0 mm 11 W/m2
15:43 12.6 °C 10.5 °C 1008.4 hPa WNW 20.9 km/h 29 km/h 87 % 0 mm 9 W/m2
15:48 12.5 °C 10.4 °C 1008.4 hPa WNW 11.3 km/h 16.1 km/h 87 % 0 mm 7 W/m2
15:53 12.4 °C 10.4 °C 1008.4 hPa WNW 14.5 km/h 24.1 km/h 88 % 0 mm 5 W/m2
15:58 12.4 °C 10.4 °C 1008.4 hPa WNW 17.7 km/h 29 km/h 88 % 0 mm 0 W/m2
16:03 12.4 °C 10.4 °C 1008.4 hPa WNW 16.1 km/h 25.7 km/h 88 % 0 mm 0 W/m2
16:18 12.2 °C 10.3 °C 1008.4 hPa WNW 20.9 km/h 30.6 km/h 88 % 0 mm 0 W/m2
16:23 12.2 °C 10.3 °C 1008.4 hPa WNW 12.9 km/h 24.1 km/h 88 % 0 mm 0 W/m2
16:28 12.1 °C 10.2 °C 1008.4 hPa WNW 14.5 km/h 24.1 km/h 88 % 0 mm 0 W/m2
16:38 12 °C 10.1 °C 1008.7 hPa WNW 16.1 km/h 32.2 km/h 88 % 0 mm 0 W/m2
16:43 11.9 °C 10 °C 1008.7 hPa WNW 17.7 km/h 24.1 km/h 88 % 0 mm 0 W/m2
16:53 11.8 °C 10.1 °C 1008.7 hPa WNW 16.1 km/h 24.1 km/h 89 % 0 mm 0 W/m2
16:58 11.8 °C 10.1 °C 1008.7 hPa WNW 11.3 km/h 24.1 km/h 89 % 0 mm 0 W/m2
17:03 11.8 °C 10.1 °C 1008.7 hPa West 9.7 km/h 16.1 km/h 89 % 0 mm 0 W/m2
17:13 11.7 °C 10.1 °C 1008.7 hPa WNW 16.1 km/h 25.7 km/h 90 % 0 mm 0 W/m2
17:18 11.8 °C 10.2 °C 1008.7 hPa WNW 14.5 km/h 25.7 km/h 90 % 0 mm 0 W/m2
17:23 11.8 °C 10.2 °C 1009 hPa WNW 12.9 km/h 19.3 km/h 90 % 0 mm 0 W/m2
17:28 11.9 °C 10.3 °C 1009 hPa WNW 11.3 km/h 20.9 km/h 90 % 0 mm 0 W/m2
17:33 11.9 °C 10.3 °C 1009 hPa West 11.3 km/h 17.7 km/h 90 % 0 mm 0 W/m2
17:43 11.8 °C 10.2 °C 1009 hPa West 12.9 km/h 19.3 km/h 90 % 0 mm 0 W/m2
17:48 11.9 °C 10.3 °C 1009 hPa West 9.7 km/h 19.3 km/h 90 % 0 mm 0 W/m2
17:53 11.9 °C 10.3 °C 1009 hPa WNW 9.7 km/h 16.1 km/h 90 % 0 mm 0 W/m2
18:03 11.9 °C 10.2 °C 1009 hPa WNW 14.5 km/h 20.9 km/h 89 % 0 mm 0 W/m2
18:08 12 °C 10.2 °C 1009 hPa WNW 12.9 km/h 19.3 km/h 89 % 0 mm 0 W/m2
18:13 12.1 °C 10.3 °C 1009 hPa WNW 12.9 km/h 20.9 km/h 89 % 0 mm 0 W/m2
18:28 12 °C 10.4 °C 1009.4 hPa West 11.3 km/h 16.1 km/h 90 % 0 mm 0 W/m2
18:33 12 °C 10.4 °C 1009.4 hPa West 9.7 km/h 16.1 km/h 90 % 0 mm 0 W/m2
18:38 12 °C 10.4 °C 1009.4 hPa WNW 9.7 km/h 16.1 km/h 90 % 0 mm 0 W/m2
18:43 12 °C 10.4 °C 1009.4 hPa WNW 9.7 km/h 14.5 km/h 90 % 0 mm 0 W/m2
18:49 11.9 °C 10.3 °C 1009.4 hPa West 6.4 km/h 12.9 km/h 90 % 0 mm 0 W/m2
18:59 11.9 °C 10.3 °C 1009.4 hPa West 1.6 km/h 6.4 km/h 90 % 0 mm 0 W/m2
19:04 11.9 °C 10.3 °C 1009.4 hPa WNW 8 km/h 12.9 km/h 90 % 0 mm 0 W/m2
19:14 11.8 °C 10.2 °C 1009.4 hPa West 11.3 km/h 19.3 km/h 90 % 0 mm 0 W/m2
19:19 11.8 °C 10.2 °C 1009 hPa West 12.9 km/h 20.9 km/h 90 % 0 mm 0 W/m2
19:24 11.8 °C 10.2 °C 1009 hPa West 9.7 km/h 19.3 km/h 90 % 0 mm 0 W/m2
19:34 11.9 °C 10.3 °C 1009 hPa West 8 km/h 14.5 km/h 90 % 0 mm 0 W/m2
19:39 11.8 °C 10.2 °C 1009 hPa West 8 km/h 14.5 km/h 90 % 0 mm 0 W/m2
19:44 11.8 °C 10.2 °C 1009 hPa West 4.8 km/h 14.5 km/h 90 % 0 mm 0 W/m2
19:49 11.8 °C 10.1 °C 1009.4 hPa West 6.4 km/h 11.3 km/h 89 % 0 mm 0 W/m2
19:54 11.8 °C 10.1 °C 1009.4 hPa WNW 6.4 km/h 17.7 km/h 89 % 0 mm 0 W/m2
19:59 11.7 °C 9.9 °C 1009.4 hPa West 11.3 km/h 22.5 km/h 89 % 0 mm 0 W/m2
20:04 11.7 °C 9.9 °C 1009.4 hPa West 11.3 km/h 22.5 km/h 89 % 0 mm 0 W/m2
20:14 11.7 °C 9.9 °C 1009.4 hPa West 11.3 km/h 19.3 km/h 89 % 0 mm 0 W/m2
20:29 11.7 °C 9.9 °C 1009.4 hPa WNW 11.3 km/h 14.5 km/h 89 % 0 mm 0 W/m2
20:34 11.7 °C 9.9 °C 1009.4 hPa WNW 12.9 km/h 16.1 km/h 89 % 0 mm 0 W/m2
20:39 11.7 °C 9.9 °C 1009.4 hPa WNW 14.5 km/h 20.9 km/h 89 % 0 mm 0 W/m2
20:47 11.8 °C 10.1 °C 1009.4 hPa WNW 12.9 km/h 17.7 km/h 89 % 0 mm 0 W/m2
20:57 11.8 °C 10.1 °C 1009.4 hPa WNW 8 km/h 14.5 km/h 89 % 0 mm 0 W/m2
21:12 11.8 °C 10.1 °C 1009.4 hPa WNW 11.3 km/h 16.1 km/h 89 % 0 mm 0 W/m2
21:17 11.8 °C 10.1 °C 1009.4 hPa WNW 8 km/h 12.9 km/h 89 % 0 mm 0 W/m2
21:27 11.8 °C 10.1 °C 1009.4 hPa WNW 6.4 km/h 11.3 km/h 89 % 0 mm 0 W/m2
21:33 11.8 °C 10.1 °C 1009.4 hPa WNW 6.4 km/h 16.1 km/h 89 % 0 mm 0 W/m2
21:38 11.8 °C 10.1 °C 1009.4 hPa West 8 km/h 11.3 km/h 89 % 0 mm 0 W/m2
21:43 11.8 °C 10.1 °C 1009.4 hPa West 4.8 km/h 14.5 km/h 89 % 0 mm 0 W/m2
21:49 11.8 °C 10.1 °C 1009.4 hPa WNW 9.7 km/h 16.1 km/h 89 % 0 mm 0 W/m2
21:54 11.8 °C 10.1 °C 1009.4 hPa West 11.3 km/h 17.7 km/h 89 % 0 mm 0 W/m2
21:59 11.9 °C 10.2 °C 1009.4 hPa WSW 9.7 km/h 12.9 km/h 89 % 0 mm 0 W/m2
22:04 11.8 °C 10.1 °C 1009.4 hPa West 6.4 km/h 11.3 km/h 89 % 0 mm 0 W/m2
22:09 11.8 °C 10.1 °C 1009 hPa WSW 4.8 km/h 11.3 km/h 89 % 0 mm 0 W/m2
22:14 11.8 °C 10.1 °C 1009.4 hPa West 6.4 km/h 11.3 km/h 89 % 0 mm 0 W/m2
22:19 11.8 °C 10.1 °C 1009 hPa West 4.8 km/h 12.9 km/h 89 % 0 mm 0 W/m2
22:24 11.8 °C 10.1 °C 1009 hPa West 3.2 km/h 11.3 km/h 89 % 0 mm 0 W/m2
22:29 11.8 °C 10.1 °C 1009 hPa West 6.4 km/h 12.9 km/h 89 % 0 mm 0 W/m2
22:34 11.8 °C 10.2 °C 1009 hPa West 12.9 km/h 20.9 km/h 90 % 0 mm 0 W/m2
22:55 11.8 °C 10.1 °C 1008.7 hPa WNW 8 km/h 11.3 km/h 89 % 0 mm 0 W/m2
23:00 11.8 °C 10.1 °C 1009 hPa West 8 km/h 11.3 km/h 89 % 0 mm 0 W/m2
23:05 11.8 °C 10.1 °C 1009 hPa WNW 3.2 km/h 9.7 km/h 89 % 0 mm 0 W/m2
23:10 11.8 °C 10.2 °C 1009 hPa WNW 8 km/h 14.5 km/h 90 % 0 mm 0 W/m2
23:15 11.7 °C 10.1 °C 1009 hPa WNW 11.3 km/h 17.7 km/h 90 % 0 mm 0 W/m2
23:25 11.7 °C 10.1 °C 1009 hPa West 11.3 km/h 19.3 km/h 90 % 0 mm 0 W/m2
23:30 11.7 °C 10.1 °C 1009 hPa West 8 km/h 14.5 km/h 90 % 0 mm 0 W/m2
23:44 11.7 °C 10.1 °C 1009 hPa West 6.4 km/h 11.3 km/h 90 % 0 mm 0 W/m2
23:49 11.7 °C 10.1 °C 1009 hPa West 6.4 km/h 14.5 km/h 90 % 0 mm 0 W/m2
Delerius-Weather
Compliments of Weather Underground - 2 mb

Data updates at regular intervals.